Time;durP1;ratioP1;P1;durP2;ratioP2;P2;SDS_P1;SDS_P2;PMS_P1;PMS_P2;Temp;Humidity;BMP_temperature;BMP_pressure;BME280_temperature;BME280_humidity;BME280_pressure;Samples;Min_cycle;Max_cycle;Signal;HPM_P1;HPM_P2
2022/01/07 00:01:11;;;;;;;14.25;7.05;;;1.40;99.90;;;;;;5034181;28;20210;-55
2022/01/07 00:03:38;;;;;;;12.43;6.20;;;1.40;99.90;;;;;;5033497;28;20206;-56
2022/01/07 00:06:05;;;;;;;12.55;7.18;;;1.40;99.90;;;;;;5033850;28;20306;-55
2022/01/07 00:08:33;;;;;;;18.50;7.30;;;1.40;99.90;;;;;;5033003;28;20205;-56
2022/01/07 00:11:00;;;;;;;14.93;6.90;;;1.40;99.90;;;;;;5033238;28;20206;-55
2022/01/07 00:13:27;;;;;;;15.85;7.28;;;1.30;99.90;;;;;;5032866;28;20225;-56
2022/01/07 00:15:54;;;;;;;15.65;6.45;;;1.30;99.90;;;;;;5033195;28;20618;-56
2022/01/07 00:18:24;;;;;;;10.15;5.80;;;1.30;99.90;;;;;;5032877;28;20205;-55
2022/01/07 00:20:51;;;;;;;11.00;6.20;;;1.30;99.90;;;;;;5033066;28;20245;-56
2022/01/07 00:23:18;;;;;;;12.95;6.30;;;1.40;99.90;;;;;;5032980;28;20203;-56
2022/01/07 00:25:45;;;;;;;9.20;6.30;;;1.40;99.90;;;;;;5036905;28;20223;-56
2022/01/07 00:28:13;;;;;;;13.93;6.28;;;1.40;99.90;;;;;;5038038;28;20206;-56
2022/01/07 00:30:40;;;;;;;13.00;5.82;;;1.40;99.90;;;;;;5036798;28;20202;-56
2022/01/07 00:33:08;;;;;;;12.55;6.68;;;1.40;99.90;;;;;;5037136;28;20206;-54
2022/01/07 00:35:37;;;;;;;12.30;6.53;;;1.50;99.90;;;;;;5037126;28;20229;-56
2022/01/07 00:38:05;;;;;;;10.23;5.65;;;1.50;99.90;;;;;;5037028;28;20198;-55
2022/01/07 00:40:32;;;;;;;9.35;5.70;;;1.50;99.90;;;;;;5036872;28;20662;-56
2022/01/07 00:42:59;;;;;;;12.18;5.40;;;1.50;99.90;;;;;;5036675;28;20678;-56
2022/01/07 00:45:26;;;;;;;10.95;6.15;;;1.50;99.90;;;;;;5036828;28;20218;-56
2022/01/07 00:47:55;;;;;;;14.82;5.50;;;1.50;99.90;;;;;;5036588;28;20584;-55
2022/01/07 00:50:23;;;;;;;13.45;6.30;;;1.50;99.90;;;;;;5036752;28;20575;-55
2022/01/07 00:52:52;;;;;;;11.93;5.93;;;1.50;99.90;;;;;;5036804;28;20202;-55
2022/01/07 00:55:19;;;;;;;14.27;5.85;;;1.50;99.90;;;;;;5036224;28;20243;-55
2022/01/07 00:57:47;;;;;;;13.98;6.85;;;1.50;99.90;;;;;;5036234;28;20205;-55
2022/01/07 01:00:17;;;;;;;11.93;6.15;;;1.50;99.90;;;;;;5036586;28;20206;-55
2022/01/07 01:02:44;;;;;;;20.38;7.00;;;1.40;99.90;;;;;;5036245;28;20209;-57
2022/01/07 01:05:13;;;;;;;11.93;6.20;;;1.40;99.90;;;;;;5036635;28;20221;-56
2022/01/07 01:07:41;;;;;;;13.57;5.70;;;1.40;99.90;;;;;;5036125;28;20209;-56
2022/01/07 01:10:10;;;;;;;14.23;6.78;;;1.40;99.90;;;;;;5036086;28;20670;-54
2022/01/07 01:12:39;;;;;;;13.25;6.43;;;1.40;99.90;;;;;;5036508;28;20202;-56
2022/01/07 01:15:08;;;;;;;14.57;5.82;;;1.40;99.90;;;;;;5036125;28;20237;-56
2022/01/07 01:17:36;;;;;;;12.60;7.25;;;1.40;99.90;;;;;;5036092;28;20206;-56
2022/01/07 01:20:05;;;;;;;11.00;6.10;;;1.40;99.90;;;;;;5036178;28;20213;-56
2022/01/07 01:22:32;;;;;;;13.43;5.30;;;1.40;99.90;;;;;;5035801;28;20205;-56
2022/01/07 01:24:59;;;;;;;8.95;5.47;;;1.40;99.90;;;;;;5035754;28;20218;-55
2022/01/07 01:27:27;;;;;;;10.27;5.43;;;1.50;99.90;;;;;;5035631;28;20198;-54
2022/01/07 01:29:55;;;;;;;8.40;5.70;;;1.50;99.90;;;;;;5036000;28;20213;-55
2022/01/07 01:32:22;;;;;;;16.75;6.47;;;1.60;99.90;;;;;;5035925;28;20206;-55
2022/01/07 01:34:49;;;;;;;9.77;5.50;;;1.60;99.90;;;;;;5035815;28;20230;-55
2022/01/07 01:37:16;;;;;;;8.38;4.70;;;1.70;99.90;;;;;;5034803;28;20210;-55
2022/01/07 01:39:43;;;;;;;11.63;5.22;;;1.70;99.90;;;;;;5035607;28;20209;-56
2022/01/07 01:42:10;;;;;;;10.80;5.00;;;1.80;99.90;;;;;;5035944;28;20202;-56
2022/01/07 01:44:39;;;;;;;15.27;5.88;;;1.80;99.90;;;;;;5035385;28;20225;-56
2022/01/07 01:47:06;;;;;;;10.10;5.30;;;1.90;99.90;;;;;;5035721;28;20206;-56
2022/01/07 01:49:34;;;;;;;11.88;5.50;;;2.00;99.90;;;;;;5035522;28;20209;-55
2022/01/07 01:52:02;;;;;;;12.85;4.82;;;2.00;99.90;;;;;;5035620;28;20232;-55
2022/01/07 01:54:29;;;;;;;13.88;5.80;;;2.00;99.90;;;;;;5035409;28;20230;-54
2022/01/07 01:56:56;;;;;;;10.98;5.47;;;2.10;99.90;;;;;;5035601;28;20217;-55
2022/01/07 01:59:25;;;;;;;12.85;5.22;;;2.10;99.90;;;;;;5035469;28;20203;-56
2022/01/07 02:01:53;;;;;;;8.80;4.78;;;2.20;99.90;;;;;;5035536;28;20211;-55
2022/01/07 02:04:20;;;;;;;16.75;5.80;;;2.20;99.90;;;;;;5035063;28;20225;-56
2022/01/07 02:06:47;;;;;;;13.50;5.68;;;2.30;99.90;;;;;;5035064;28;20679;-56
2022/01/07 02:09:15;;;;;;;13.57;5.40;;;2.30;99.90;;;;;;5035224;28;20203;-56
2022/01/07 02:11:42;;;;;;;10.02;4.78;;;2.30;99.90;;;;;;5035268;28;20209;-55
2022/01/07 02:14:09;;;;;;;10.15;5.05;;;2.40;99.90;;;;;;5035114;28;20227;-54
2022/01/07 02:16:36;;;;;;;9.27;4.85;;;2.40;99.90;;;;;;5035189;28;20202;-55
2022/01/07 02:19:05;;;;;;;12.65;4.68;;;2.40;99.90;;;;;;5034993;28;20199;-56
2022/01/07 02:21:37;;;;;;;12.18;5.40;;;2.50;99.90;;;;;;5035165;28;20217;-56
2022/01/07 02:24:05;;;;;;;11.45;4.80;;;2.50;99.90;;;;;;5034794;28;20187;-55
2022/01/07 02:26:33;;;;;;;14.90;5.15;;;2.50;99.90;;;;;;5035150;28;20213;-55
2022/01/07 02:29:00;;;;;;;9.02;4.45;;;2.50;99.90;;;;;;5034803;28;20674;-55
2022/01/07 02:31:28;;;;;;;11.20;5.68;;;2.50;99.90;;;;;;5035058;28;20202;-55
2022/01/07 02:33:55;;;;;;;14.30;5.55;;;2.60;99.90;;;;;;5034803;28;20206;-55
2022/01/07 02:36:22;;;;;;;10.27;5.63;;;2.50;99.90;;;;;;5034602;28;20705;-55
2022/01/07 02:38:50;;;;;;;9.05;5.28;;;2.60;99.90;;;;;;5034593;28;20669;-56
2022/01/07 02:41:17;;;;;;;7.78;4.50;;;2.60;99.90;;;;;;5034952;28;20210;-56
2022/01/07 02:43:44;;;;;;;8.98;4.80;;;2.60;99.90;;;;;;5034429;28;20210;-56
2022/01/07 02:46:11;;;;;;;13.15;5.00;;;2.50;99.90;;;;;;5034462;28;20226;-55
2022/01/07 02:48:38;;;;;;;6.40;3.65;;;2.60;99.90;;;;;;5033397;28;20206;-56
2022/01/07 02:51:06;;;;;;;9.80;4.45;;;2.60;99.90;;;;;;5034475;28;20198;-56
2022/01/07 02:53:33;;;;;;;12.45;5.07;;;2.50;99.90;;;;;;5034697;28;20202;-56
2022/01/07 02:56:01;;;;;;;8.45;4.60;;;2.60;99.90;;;;;;5034591;28;20234;-55
2022/01/07 02:58:28;;;;;;;7.05;4.50;;;2.60;99.90;;;;;;5034626;28;20203;-56
2022/01/07 03:00:55;;;;;;;9.02;4.10;;;2.60;99.90;;;;;;5034633;28;20213;-55
2022/01/07 03:03:23;;;;;;;11.13;5.75;;;2.60;99.90;;;;;;5034530;28;20605;-55
2022/01/07 03:05:50;;;;;;;7.75;3.67;;;2.70;99.90;;;;;;5034213;28;20226;-55
2022/01/07 03:08:17;;;;;;;12.18;4.50;;;2.70;99.90;;;;;;5033974;28;20205;-55
2022/01/07 03:10:44;;;;;;;9.70;4.85;;;2.70;99.90;;;;;;5034147;28;20209;-55
2022/01/07 03:13:12;;;;;;;11.57;4.45;;;2.70;99.90;;;;;;5034103;28;20207;-56
2022/01/07 03:15:40;;;;;;;13.63;4.90;;;2.70;99.90;;;;;;5033956;28;20230;-55
2022/01/07 03:18:09;;;;;;;7.65;3.90;;;2.70;99.90;;;;;;5034018;28;20202;-56
2022/01/07 03:20:39;;;;;;;12.85;4.80;;;2.70;99.90;;;;;;5033879;28;20202;-55
2022/01/07 03:23:11;;;;;;;7.35;4.13;;;2.80;99.90;;;;;;5034167;28;20206;-54
2022/01/07 03:25:38;;;;;;;10.23;4.90;;;2.80;99.90;;;;;;5034440;28;20269;-54
2022/01/07 03:28:07;;;;;;;12.57;4.90;;;2.70;99.90;;;;;;5033803;28;20202;-52
2022/01/07 03:30:36;;;;;;;13.43;5.05;;;2.80;99.90;;;;;;5033826;28;20567;-55
2022/01/07 03:33:03;;;;;;;8.32;4.07;;;2.80;99.90;;;;;;5033886;28;20206;-54
2022/01/07 03:35:30;;;;;;;10.88;4.35;;;2.80;99.90;;;;;;5033576;28;20222;-54
2022/01/07 03:37:57;;;;;;;8.90;4.50;;;2.90;99.90;;;;;;5033510;28;20202;-55
2022/01/07 03:40:24;;;;;;;7.65;3.97;;;2.90;99.90;;;;;;5033335;28;20210;-55
2022/01/07 03:42:52;;;;;;;6.57;3.63;;;2.90;99.90;;;;;;5034559;28;20579;-55
2022/01/07 03:45:21;;;;;;;8.43;4.20;;;2.90;99.90;;;;;;5033528;28;20293;-55
2022/01/07 03:47:50;;;;;;;8.57;4.72;;;2.90;99.90;;;;;;5033187;28;20198;-55
2022/01/07 03:50:18;;;;;;;8.10;4.72;;;3.00;99.90;;;;;;5033395;28;20198;-55
2022/01/07 03:52:46;;;;;;;9.13;4.40;;;3.00;99.90;;;;;;5033723;28;20202;-55
2022/01/07 03:55:16;;;;;;;6.97;3.80;;;3.00;99.90;;;;;;5033718;28;20234;-54
2022/01/07 03:57:43;;;;;;;7.93;4.43;;;3.00;99.90;;;;;;5034238;28;20670;-55
2022/01/07 04:00:14;;;;;;;7.75;4.88;;;3.00;99.90;;;;;;5035155;28;20209;-56
2022/01/07 04:02:41;;;;;;;9.20;4.57;;;3.00;99.90;;;;;;5036226;28;20187;-55
2022/01/07 04:05:11;;;;;;;6.38;4.40;;;3.00;99.90;;;;;;5036601;28;20218;-55
2022/01/07 04:09:10;;;;;;;8.90;4.00;;;3.00;99.90;;;;;;5097192;27;20544;-56
2022/01/07 04:11:37;;;;;;;10.80;4.90;;;3.00;99.90;;;;;;5096034;28;20208;-55
2022/01/07 04:14:04;;;;;;;9.07;4.05;;;3.00;99.90;;;;;;5095529;28;20208;-57
2022/01/07 04:16:31;;;;;;;9.13;4.47;;;3.00;99.90;;;;;;5096776;28;20208;-56
2022/01/07 04:18:58;;;;;;;10.82;4.25;;;3.00;99.90;;;;;;5098025;28;20200;-55
2022/01/07 04:21:25;;;;;;;8.65;4.75;;;3.00;99.90;;;;;;5098776;28;20211;-56
2022/01/07 04:23:52;;;;;;;12.10;5.00;;;3.00;99.90;;;;;;5096794;28;20212;-56
2022/01/07 04:26:21;;;;;;;5.18;3.90;;;3.00;99.90;;;;;;5094286;28;20208;-55
2022/01/07 04:28:48;;;;;;;7.65;4.10;;;3.00;99.90;;;;;;5090993;28;20220;-56
2022/01/07 04:31:15;;;;;;;8.63;4.50;;;3.10;99.90;;;;;;5090861;28;20208;-55
2022/01/07 04:33:42;;;;;;;7.28;3.85;;;3.00;99.90;;;;;;5090613;28;20200;-55
2022/01/07 04:36:09;;;;;;;12.15;3.92;;;3.10;99.90;;;;;;5091727;28;20231;-56
2022/01/07 04:38:36;;;;;;;8.55;4.00;;;3.10;99.90;;;;;;5090459;28;20193;-56
2022/01/07 04:41:04;;;;;;;8.80;4.28;;;3.10;99.90;;;;;;5090041;28;20200;-55
2022/01/07 04:43:32;;;;;;;6.90;4.13;;;3.10;99.90;;;;;;5090225;28;20213;-56
2022/01/07 04:45:59;;;;;;;12.18;4.00;;;3.10;99.90;;;;;;5090240;28;20220;-55
2022/01/07 04:48:26;;;;;;;7.05;3.83;;;3.10;99.90;;;;;;5089851;28;20220;-56
2022/01/07 04:50:53;;;;;;;11.98;4.45;;;3.20;99.90;;;;;;5090322;28;20197;-56
2022/01/07 04:53:21;;;;;;;6.20;3.67;;;3.20;99.90;;;;;;5090041;28;20201;-55
2022/01/07 04:55:49;;;;;;;6.68;4.07;;;3.20;99.90;;;;;;5080412;22;20236;-58
2022/01/07 04:58:16;;;;;;;4.95;3.65;;;3.20;99.90;;;;;;5050892;28;20209;-59
2022/01/07 05:00:45;;;;;;;9.70;4.05;;;3.20;99.90;;;;;;5050469;28;20202;-61
2022/01/07 05:03:13;;;;;;;4.75;3.72;;;3.30;99.90;;;;;;5050664;28;20206;-59
2022/01/07 05:05:42;;;;;;;8.48;4.00;;;3.30;99.90;;;;;;5053069;28;20222;-60
2022/01/07 05:08:09;;;;;;;11.90;4.57;;;3.30;99.90;;;;;;5055428;28;20304;-60
2022/01/07 05:10:37;;;;;;;9.85;3.72;;;3.30;99.90;;;;;;5059932;28;20225;-59
2022/01/07 05:13:04;;;;;;;6.65;3.78;;;3.30;99.90;;;;;;5056508;28;20775;-60
2022/01/07 05:15:31;;;;;;;7.05;3.88;;;3.30;99.90;;;;;;5051735;28;20225;-60
2022/01/07 05:18:00;;;;;;;7.43;3.70;;;3.30;99.90;;;;;;5050511;28;20202;-61
2022/01/07 05:20:27;;;;;;;7.10;3.55;;;3.40;99.90;;;;;;5036770;28;20225;-61
2022/01/07 05:22:54;;;;;;;8.90;3.60;;;3.40;99.90;;;;;;5036220;28;20202;-60
2022/01/07 05:25:21;;;;;;;6.95;3.60;;;3.40;99.90;;;;;;5036200;28;20233;-59
2022/01/07 05:27:49;;;;;;;6.15;4.25;;;3.40;99.90;;;;;;5035931;28;20234;-60
2022/01/07 05:30:16;;;;;;;6.32;4.30;;;3.40;99.90;;;;;;5035956;28;20213;-60
2022/01/07 05:32:43;;;;;;;4.80;3.60;;;3.40;99.90;;;;;;5035947;28;20210;-60
2022/01/07 05:35:11;;;;;;;11.70;3.80;;;3.40;99.90;;;;;;5035753;28;20230;-60
2022/01/07 05:37:38;;;;;;;7.00;3.95;;;3.40;99.90;;;;;;5036190;28;20276;-59
2022/01/07 05:40:07;;;;;;;5.72;4.00;;;3.40;99.90;;;;;;5035925;28;20566;-60
2022/01/07 05:42:34;;;;;;;8.95;4.50;;;3.40;99.90;;;;;;5036267;28;20202;-60
2022/01/07 05:45:01;;;;;;;8.57;4.22;;;3.50;99.90;;;;;;5036774;28;20227;-59
2022/01/07 05:47:28;;;;;;;9.40;4.50;;;3.40;99.90;;;;;;5036961;28;20206;-59
2022/01/07 05:49:55;;;;;;;8.65;4.78;;;3.40;99.90;;;;;;5036373;28;20207;-60
2022/01/07 05:52:23;;;;;;;9.20;4.10;;;3.40;99.90;;;;;;5037125;28;20224;-58
2022/01/07 05:54:51;;;;;;;7.50;4.50;;;3.40;99.90;;;;;;5037257;28;20233;-60
2022/01/07 05:57:18;;;;;;;7.28;4.20;;;3.40;99.90;;;;;;5038186;28;20195;-60
2022/01/07 05:59:45;;;;;;;6.65;4.20;;;3.50;99.90;;;;;;5039668;28;20206;-60
2022/01/07 06:02:12;;;;;;;8.70;4.70;;;3.40;99.90;;;;;;5040021;28;20206;-60
2022/01/07 06:04:39;;;;;;;8.30;4.25;;;3.50;99.90;;;;;;5040465;28;20226;-60
2022/01/07 06:07:06;;;;;;;8.73;4.03;;;3.50;99.90;;;;;;5040738;28;20218;-59
2022/01/07 06:09:35;;;;;;;10.57;5.22;;;3.50;99.90;;;;;;5038671;28;20222;-60
2022/01/07 06:12:02;;;;;;;9.45;4.10;;;3.50;99.90;;;;;;5037555;28;20258;-59
2022/01/07 06:14:29;;;;;;;8.00;4.15;;;3.50;99.90;;;;;;5036892;28;20268;-60
2022/01/07 06:16:57;;;;;;;7.53;4.18;;;3.50;99.90;;;;;;5035856;28;20207;-60
2022/01/07 06:19:24;;;;;;;8.73;4.93;;;3.50;99.90;;;;;;5035685;28;20256;-59
2022/01/07 06:21:51;;;;;;;6.93;4.47;;;3.60;99.90;;;;;;5035804;28;20232;-60
2022/01/07 06:24:18;;;;;;;9.60;5.00;;;3.60;99.90;;;;;;5035397;28;20202;-59
2022/01/07 06:26:46;;;;;;;7.40;5.13;;;3.60;99.90;;;;;;5035103;28;20221;-58
2022/01/07 06:29:13;;;;;;;9.98;4.35;;;3.60;99.90;;;;;;5034878;28;20225;-60
2022/01/07 06:31:40;;;;;;;13.05;5.30;;;3.50;99.90;;;;;;5034397;28;20207;-59
2022/01/07 06:34:07;;;;;;;9.93;4.45;;;3.50;99.90;;;;;;5035264;28;20213;-60
2022/01/07 06:36:34;;;;;;;9.32;4.50;;;3.60;99.90;;;;;;5034900;28;20576;-60
2022/01/07 06:39:01;;;;;;;13.10;4.30;;;3.60;99.90;;;;;;5035214;28;20666;-60
2022/01/07 06:41:28;;;;;;;11.98;5.00;;;3.60;99.90;;;;;;5035165;28;20205;-60
2022/01/07 06:43:57;;;;;;;9.35;4.90;;;3.60;99.90;;;;;;5039810;28;20325;-60
2022/01/07 06:46:24;;;;;;;8.30;4.25;;;3.60;99.90;;;;;;5044466;28;20225;-59
2022/01/07 06:48:51;;;;;;;9.15;5.18;;;3.60;99.90;;;;;;5042929;28;20226;-60
2022/01/07 06:51:18;;;;;;;8.77;5.38;;;3.60;99.90;;;;;;5037261;28;20603;-60
2022/01/07 06:53:45;;;;;;;8.23;5.50;;;3.60;99.90;;;;;;5035257;28;20202;-59
2022/01/07 06:56:12;;;;;;;10.60;4.88;;;3.60;99.90;;;;;;5034182;28;20315;-60
2022/01/07 06:58:39;;;;;;;12.07;5.28;;;3.60;99.90;;;;;;5035177;28;20209;-60
2022/01/07 07:01:08;;;;;;;8.93;5.72;;;3.50;99.90;;;;;;5035271;28;20236;-60
2022/01/07 07:03:36;;;;;;;6.05;4.80;;;3.50;99.90;;;;;;5035044;28;20667;-60
2022/01/07 07:06:03;;;;;;;9.18;5.70;;;3.40;99.90;;;;;;5034930;28;20245;-61
2022/01/07 07:08:30;;;;;;;7.38;5.78;;;3.40;99.90;;;;;;5035588;28;20218;-60
2022/01/07 07:10:57;;;;;;;11.07;5.55;;;3.40;99.90;;;;;;5035262;28;20213;-60
2022/01/07 07:13:24;;;;;;;10.45;5.15;;;3.40;99.90;;;;;;5034637;28;20209;-60
2022/01/07 07:15:51;;;;;;;7.13;5.28;;;3.40;99.90;;;;;;5034339;28;20234;-60
2022/01/07 07:18:20;;;;;;;12.02;5.65;;;3.40;99.90;;;;;;5034625;28;20670;-60
2022/01/07 07:20:47;;;;;;;11.05;5.95;;;3.30;99.90;;;;;;5034833;28;20213;-60
2022/01/07 07:23:14;;;;;;;12.02;5.75;;;3.30;99.90;;;;;;5037778;28;20210;-60
2022/01/07 07:25:41;;;;;;;12.82;6.80;;;3.30;99.90;;;;;;5036236;28;20222;-58
2022/01/07 07:28:08;;;;;;;9.27;6.05;;;3.20;99.90;;;;;;5035179;28;20214;-60
2022/01/07 07:30:39;;;;;;;12.40;6.55;;;3.20;99.90;;;;;;5037336;28;20245;-60
2022/01/07 07:33:29;;;;;;;10.85;6.40;;;3.20;99.90;;;;;;5036174;28;20229;-60
2022/01/07 07:38:44;;;;;;;9.32;6.88;;;3.10;99.90;;;;;;5034002;28;20178;-60
2022/01/07 07:41:12;;;;;;;10.88;6.38;;;3.10;99.90;;;;;;5034016;28;20209;-59
2022/01/07 07:43:41;;;;;;;9.98;6.13;;;3.00;99.90;;;;;;5034006;28;20213;-61
2022/01/07 07:46:08;;;;;;;13.07;7.47;;;3.00;99.90;;;;;;5034445;28;20229;-60
2022/01/07 07:48:35;;;;;;;9.95;7.53;;;3.00;99.90;;;;;;5034559;28;20218;-61
2022/01/07 07:51:04;;;;;;;13.80;6.40;;;3.00;99.90;;;;;;5033638;28;20209;-60
2022/01/07 07:53:31;;;;;;;12.45;6.55;;;3.10;99.90;;;;;;5033623;28;20202;-60
2022/01/07 07:55:58;;;;;;;11.90;7.03;;;3.10;99.90;;;;;;5033456;28;20233;-59
2022/01/07 07:58:27;;;;;;;9.15;6.28;;;3.00;99.90;;;;;;5034006;28;20202;-60
2022/01/07 08:00:54;;;;;;;7.80;6.30;;;3.00;99.90;;;;;;5033876;28;20202;-59
2022/01/07 08:03:23;;;;;;;8.85;6.20;;;3.00;99.90;;;;;;5034453;28;20289;-60
2022/01/07 08:05:50;;;;;;;7.40;5.60;;;3.00;99.90;;;;;;5038959;28;20237;-61
2022/01/07 08:08:19;;;;;;;7.80;5.45;;;3.00;99.90;;;;;;5035658;28;20222;-60
2022/01/07 08:10:49;;;;;;;11.32;7.07;;;3.00;99.90;;;;;;5035798;28;20206;-60
2022/01/07 08:13:28;;;;;;;7.90;5.32;;;3.00;99.90;;;;;;5034857;28;20206;-60
2022/01/07 08:15:58;;;;;;;10.48;6.05;;;3.00;99.90;;;;;;5034370;28;20310;-60
2022/01/07 08:18:25;;;;;;;7.97;4.97;;;3.00;99.90;;;;;;5035110;28;20195;-60
2022/01/07 08:20:52;;;;;;;12.60;6.00;;;3.00;99.90;;;;;;5034307;28;20209;-60
2022/01/07 08:23:21;;;;;;;8.18;5.18;;;3.00;99.90;;;;;;5034853;28;20202;-58
2022/01/07 08:25:48;;;;;;;8.15;6.20;;;3.00;99.90;;;;;;5034560;28;20233;-60
2022/01/07 08:28:16;;;;;;;10.05;5.43;;;3.00;99.90;;;;;;5039024;28;20206;-59
2022/01/07 08:31:11;;;;;;;7.15;6.38;;;3.00;99.90;;;;;;5039345;28;20296;-59
2022/01/07 08:36:37;;;;;;;7.30;5.35;;;2.90;99.90;;;;;;5012390;28;20613;-59
2022/01/07 08:39:09;;;;;;;7.82;5.85;;;2.90;99.90;;;;;;5029389;28;20550;-60
2022/01/07 08:41:37;;;;;;;7.90;5.00;;;2.90;99.90;;;;;;5034898;28;20187;-59
2022/01/07 08:44:06;;;;;;;10.30;6.10;;;2.90;99.90;;;;;;5034935;28;20206;-59
2022/01/07 08:46:34;;;;;;;9.73;5.30;;;2.90;99.90;;;;;;5034853;28;20218;-59
2022/01/07 08:49:02;;;;;;;6.78;4.82;;;3.00;99.90;;;;;;5034806;28;20226;-59
2022/01/07 08:51:29;;;;;;;11.23;5.80;;;3.00;99.90;;;;;;5034813;28;20201;-60
2022/01/07 08:53:56;;;;;;;7.72;5.20;;;3.10;99.90;;;;;;5034310;28;20207;-60
2022/01/07 08:56:26;;;;;;;6.93;5.05;;;3.10;99.90;;;;;;5037577;28;20308;-59
2022/01/07 08:58:54;;;;;;;6.88;5.40;;;3.20;99.90;;;;;;5038669;28;20277;-59
2022/01/07 09:01:21;;;;;;;12.82;5.07;;;3.20;99.90;;;;;;5037989;28;20209;-60
2022/01/07 09:03:48;;;;;;;7.18;4.65;;;3.20;99.90;;;;;;5036988;28;20229;-59
2022/01/07 09:06:16;;;;;;;6.88;4.90;;;3.20;99.90;;;;;;5036735;28;20226;-60
2022/01/07 09:08:43;;;;;;;7.95;5.05;;;3.20;99.90;;;;;;5036695;28;20219;-59
2022/01/07 09:11:10;;;;;;;9.85;5.50;;;3.30;99.90;;;;;;5036793;28;20209;-58
2022/01/07 09:13:38;;;;;;;7.38;4.95;;;3.30;99.90;;;;;;5036730;28;20213;-59
2022/01/07 09:16:05;;;;;;;7.40;5.28;;;3.30;99.90;;;;;;5036048;28;20222;-61
2022/01/07 09:18:33;;;;;;;7.70;6.20;;;3.30;99.90;;;;;;5036244;28;20717;-59
2022/01/07 09:21:00;;;;;;;10.68;5.90;;;3.40;99.90;;;;;;5037199;28;20202;-59
2022/01/07 09:23:27;;;;;;;7.15;5.63;;;3.30;99.90;;;;;;5035812;28;20202;-57
2022/01/07 09:25:55;;;;;;;7.63;5.28;;;3.40;99.90;;;;;;5035769;28;20744;-57
2022/01/07 09:28:22;;;;;;;7.90;5.05;;;3.40;99.90;;;;;;5036087;28;20586;-60
2022/01/07 09:30:50;;;;;;;7.85;5.50;;;3.40;99.90;;;;;;5035746;28;20234;-59
2022/01/07 09:33:17;;;;;;;6.90;6.20;;;3.50;99.90;;;;;;5035850;28;20203;-58
2022/01/07 09:35:45;;;;;;;7.18;5.38;;;3.50;99.90;;;;;;5035741;28;20262;-59
2022/01/07 09:38:12;;;;;;;6.85;5.07;;;3.50;99.90;;;;;;5035906;28;20662;-59
2022/01/07 09:40:39;;;;;;;6.10;4.80;;;3.60;99.90;;;;;;5036011;28;20202;-59
2022/01/07 09:43:09;;;;;;;7.97;5.35;;;3.60;99.90;;;;;;5036001;28;20202;-57
2022/01/07 09:45:38;;;;;;;6.25;5.28;;;3.70;99.90;;;;;;5036063;28;20254;-58
2022/01/07 09:48:08;;;;;;;5.82;4.35;;;3.70;99.90;;;;;;5035688;28;20202;-57
2022/01/07 09:50:36;;;;;;;6.60;4.78;;;3.70;99.90;;;;;;5035596;28;20318;-59
2022/01/07 09:53:07;;;;;;;10.40;5.45;;;3.70;99.90;;;;;;5035826;28;20206;-59
2022/01/07 09:55:34;;;;;;;8.55;5.07;;;3.70;99.90;;;;;;5035819;28;20233;-59
2022/01/07 09:58:02;;;;;;;6.20;4.88;;;3.70;99.90;;;;;;5036010;28;20286;-59
2022/01/07 10:00:35;;;;;;;4.68;3.75;;;3.70;99.90;;;;;;5040748;28;20199;-58
2022/01/07 10:03:04;;;;;;;9.70;5.75;;;3.60;99.90;;;;;;5046776;28;20186;-59
2022/01/07 10:05:32;;;;;;;6.95;4.72;;;3.60;99.90;;;;;;5039818;28;20237;-59
2022/01/07 10:08:21;;;;;;;8.07;5.60;;;3.70;99.90;;;;;;5036552;28;20562;-58
2022/01/07 10:10:49;;;;;;;7.03;5.20;;;3.70;99.90;;;;;;5037626;28;20242;-59
2022/01/07 10:13:20;;;;;;;7.38;5.80;;;3.70;99.90;;;;;;5041237;28;20202;-58
2022/01/07 10:15:47;;;;;;;6.80;4.47;;;3.70;99.90;;;;;;5048799;28;20222;-59
2022/01/07 10:18:16;;;;;;;8.48;5.63;;;3.80;99.90;;;;;;5050719;28;20182;-59
2022/01/07 10:20:46;;;;;;;8.23;5.97;;;3.80;99.90;;;;;;5047262;28;20256;-60
2022/01/07 10:23:15;;;;;;;6.65;4.90;;;3.80;99.90;;;;;;5047492;28;20212;-58
2022/01/07 10:25:44;;;;;;;6.78;5.38;;;3.80;99.90;;;;;;5041235;28;20253;-58
2022/01/07 10:28:15;;;;;;;6.85;4.57;;;3.80;99.90;;;;;;5044582;28;20206;-59
2022/01/07 10:30:44;;;;;;;4.70;4.05;;;3.80;99.90;;;;;;5045471;28;20627;-58
2022/01/07 10:33:21;;;;;;;6.65;4.90;;;3.80;99.90;;;;;;5044278;28;20690;-59
2022/01/07 10:35:51;;;;;;;6.47;4.70;;;3.80;99.90;;;;;;5044598;28;20229;-59
2022/01/07 10:38:21;;;;;;;6.55;4.55;;;3.80;99.90;;;;;;5042118;28;20186;-59
2022/01/07 10:40:50;;;;;;;7.32;4.90;;;3.80;99.90;;;;;;5040491;28;20221;-59
2022/01/07 10:43:19;;;;;;;7.40;4.82;;;3.80;99.90;;;;;;5036641;28;20202;-60
2022/01/07 10:45:49;;;;;;;6.28;4.65;;;3.80;99.90;;;;;;5036784;28;20227;-60
2022/01/07 10:48:17;;;;;;;7.90;5.68;;;3.80;99.90;;;;;;5036188;28;20585;-59
2022/01/07 10:50:45;;;;;;;6.53;4.28;;;3.70;99.90;;;;;;5037754;28;20229;-59
2022/01/07 10:53:22;;;;;;;7.95;4.30;;;3.70;99.90;;;;;;5037564;28;20213;-59
2022/01/07 10:56:14;;;;;;;5.13;4.57;;;3.70;99.90;;;;;;5037797;28;20241;-58
2022/01/07 10:59:04;;;;;;;6.45;4.95;;;3.70;99.90;;;;;;5037348;28;20186;-59
2022/01/07 11:04:07;;;;;;;5.20;4.22;;;3.70;99.90;;;;;;5055120;22;20644;-54
2022/01/07 11:06:35;;;;;;;7.28;4.82;;;3.70;99.90;;;;;;5033993;28;20206;-57
2022/01/07 11:09:07;;;;;;;5.80;4.65;;;3.70;99.90;;;;;;5033874;28;20206;-55
2022/01/07 11:11:34;;;;;;;6.22;5.63;;;3.70;99.90;;;;;;5033782;28;20654;-56
2022/01/07 11:14:07;;;;;;;8.77;5.07;;;3.70;99.90;;;;;;5033707;28;20226;-54
2022/01/07 11:16:38;;;;;;;5.15;4.53;;;3.70;99.90;;;;;;5033737;28;20238;-55
2022/01/07 11:19:07;;;;;;;8.40;5.63;;;3.80;99.90;;;;;;5034289;28;20213;-54
2022/01/07 11:21:35;;;;;;;7.05;5.00;;;3.80;99.90;;;;;;5033671;28;20206;-55
2022/01/07 11:24:39;;;;;;;5.68;5.07;;;3.80;99.90;;;;;;5033961;28;20226;-55
2022/01/07 11:27:09;;;;;;;5.43;4.93;;;3.80;99.90;;;;;;5034886;28;20736;-58
2022/01/07 11:29:38;;;;;;;6.20;5.30;;;3.80;99.90;;;;;;5032946;28;20222;-58
2022/01/07 11:32:35;;;;;;;5.82;5.32;;;3.90;99.90;;;;;;5033444;28;20237;-57
2022/01/07 11:35:47;;;;;;;5.80;5.25;;;3.90;99.90;;;;;;5033283;28;20194;-58
2022/01/07 11:38:34;;;;;;;6.63;5.35;;;3.90;99.90;;;;;;5033284;28;20187;-60
2022/01/07 11:41:05;;;;;;;5.45;4.95;;;3.90;99.90;;;;;;5033028;28;20208;-59
2022/01/07 11:43:34;;;;;;;7.25;5.30;;;3.90;99.90;;;;;;5033381;28;20223;-58
2022/01/07 11:46:21;;;;;;;7.25;5.18;;;3.90;99.90;;;;;;5033294;28;20206;-59
2022/01/07 11:48:48;;;;;;;7.15;4.97;;;3.90;99.90;;;;;;5033292;28;20277;-59
2022/01/07 11:51:16;;;;;;;7.07;6.18;;;3.90;99.90;;;;;;5033220;28;20233;-58
2022/01/07 11:54:09;;;;;;;5.82;5.22;;;3.90;99.90;;;;;;5033558;28;20227;-60
2022/01/07 11:56:39;;;;;;;5.82;5.22;;;3.90;99.90;;;;;;5023690;28;20205;-59
2022/01/07 11:59:29;;;;;;;6.10;5.50;;;3.90;99.90;;;;;;5032987;28;20681;-58
2022/01/07 12:02:04;;;;;;;7.70;5.03;;;4.00;99.90;;;;;;5017494;28;20674;-59
2022/01/07 12:04:34;;;;;;;9.02;5.43;;;4.00;99.90;;;;;;5033474;28;20190;-59
2022/01/07 12:07:06;;;;;;;6.28;5.68;;;4.00;99.90;;;;;;5033575;28;20301;-59
2022/01/07 12:09:38;;;;;;;11.90;6.40;;;4.00;99.90;;;;;;5032784;28;20218;-59
2022/01/07 12:12:12;;;;;;;8.45;5.65;;;3.90;99.90;;;;;;5033594;28;20313;-58
2022/01/07 12:14:42;;;;;;;7.07;5.65;;;4.00;99.90;;;;;;5033009;28;20647;-59
2022/01/07 12:17:13;;;;;;;8.40;5.85;;;4.00;99.90;;;;;;5033551;28;20221;-61
2022/01/07 12:20:17;;;;;;;5.95;5.45;;;4.10;99.90;;;;;;5032777;28;20709;-59
2022/01/07 12:22:52;;;;;;;7.80;4.80;;;4.10;99.90;;;;;;5032844;28;20242;-60
2022/01/07 12:25:21;;;;;;;7.50;6.05;;;4.20;99.90;;;;;;5032602;28;20205;-59
2022/01/07 12:28:05;;;;;;;5.53;4.95;;;4.20;99.90;;;;;;5037219;28;20229;-58
2022/01/07 12:30:32;;;;;;;7.75;5.40;;;4.20;99.90;;;;;;5036170;28;20238;-59
2022/01/07 12:33:07;;;;;;;8.18;5.97;;;4.20;99.90;;;;;;5037062;28;20282;-57
2022/01/07 12:35:34;;;;;;;7.00;4.88;;;4.20;99.90;;;;;;5037408;28;20214;-60
2022/01/07 12:38:09;;;;;;;7.78;5.88;;;4.20;99.90;;;;;;5037107;28;20214;-59
2022/01/07 12:40:36;;;;;;;11.90;7.35;;;4.10;99.90;;;;;;5036803;28;20643;-60
2022/01/07 12:43:05;;;;;;;10.00;7.68;;;4.20;99.90;;;;;;5037246;28;20344;-59
2022/01/07 12:45:32;;;;;;;10.05;6.60;;;4.20;99.90;;;;;;5036586;28;20221;-58
2022/01/07 12:47:59;;;;;;;9.88;7.22;;;4.20;99.90;;;;;;5037025;28;20209;-59
2022/01/07 12:50:29;;;;;;;7.43;5.90;;;4.20;99.90;;;;;;5036905;28;20230;-58
2022/01/07 12:52:56;;;;;;;9.75;6.18;;;4.30;99.90;;;;;;5036749;28;20230;-59
2022/01/07 12:55:26;;;;;;;6.75;5.95;;;4.30;99.90;;;;;;5036597;28;20213;-59
2022/01/07 12:57:59;;;;;;;6.13;5.53;;;4.20;99.90;;;;;;5036722;28;20186;-58
2022/01/07 13:00:29;;;;;;;7.80;6.28;;;4.20;99.90;;;;;;5036579;28;20201;-60
2022/01/07 13:02:59;;;;;;;9.88;7.60;;;4.20;99.90;;;;;;5036379;28;20796;-60
2022/01/07 13:05:29;;;;;;;7.22;6.20;;;4.20;99.90;;;;;;5036586;28;20662;-60
2022/01/07 13:07:59;;;;;;;7.00;5.78;;;4.20;99.90;;;;;;5036885;28;20573;-60
2022/01/07 13:10:28;;;;;;;6.53;5.93;;;4.20;99.90;;;;;;5036786;28;20226;-59
2022/01/07 13:12:59;;;;;;;6.28;5.28;;;4.30;99.90;;;;;;5036324;28;20245;-57